Time;durP1;ratioP1;P1;durP2;ratioP2;P2;SDS_P1;SDS_P2;PMS_P1;PMS_P2;Temp;Humidity;BMP_temperature;BMP_pressure;BME280_temperature;BME280_humidity;BME280_pressure;Samples;Min_cycle;Max_cycle;Signal;HPM_P1;HPM_P2
2021/03/01 00:00:12;;;;;;;19.02;8.90;;;13.00;50.80;;;;;;6110679;29;20077;-78
2021/03/01 00:03:13;;;;;;;18.02;8.02;;;12.90;51.00;;;;;;6093541;29;20040;-78
2021/03/01 00:06:15;;;;;;;19.00;7.70;;;12.80;51.20;;;;;;6120336;29;20385;-79
2021/03/01 00:09:16;;;;;;;24.42;8.07;;;12.80;51.40;;;;;;6100147;29;20472;-78
2021/03/01 00:12:17;;;;;;;19.17;7.95;;;12.70;51.40;;;;;;6081826;29;20087;-78
2021/03/01 00:15:21;;;;;;;27.23;8.82;;;12.70;51.60;;;;;;6118510;29;20464;-78
2021/03/01 00:18:22;;;;;;;20.45;8.50;;;12.80;51.80;;;;;;6086737;29;20433;-78
2021/03/01 00:21:22;;;;;;;18.73;7.65;;;12.60;52.40;;;;;;6071655;29;20071;-79
2021/03/01 00:24:24;;;;;;;20.67;8.30;;;12.60;52.00;;;;;;6087423;29;20028;-78
2021/03/01 00:27:25;;;;;;;17.25;8.00;;;12.50;52.00;;;;;;6104052;29;20044;-79
2021/03/01 00:30:28;;;;;;;21.27;8.85;;;12.50;52.00;;;;;;6089205;29;20032;-79
2021/03/01 00:33:29;;;;;;;19.88;8.88;;;12.40;52.00;;;;;;6106449;29;20032;-79
2021/03/01 04:39:06;;;;;;;16.70;8.05;;;10.40;56.20;;;;;;6139442;23;20050;-78
2021/03/01 04:42:07;;;;;;;21.83;9.68;;;10.40;56.30;;;;;;6178950;28;20097;-77
2021/03/01 04:45:10;;;;;;;27.52;10.68;;;10.40;56.20;;;;;;6181865;28;20069;-78
2021/03/01 04:48:12;;;;;;;26.20;9.80;;;10.40;56.30;;;;;;6198640;28;20331;-78
2021/03/01 04:51:14;;;;;;;19.05;9.52;;;10.40;56.10;;;;;;6165145;28;20134;-78
2021/03/01 04:54:16;;;;;;;19.50;8.32;;;10.40;56.00;;;;;;6170925;28;20085;-78
2021/03/01 04:57:19;;;;;;;21.33;7.53;;;10.40;56.00;;;;;;6181702;28;20488;-78
2021/03/01 05:00:22;;;;;;;20.63;8.68;;;10.40;56.10;;;;;;6194037;28;20406;-78
2021/03/01 05:03:23;;;;;;;20.58;9.18;;;10.40;56.20;;;;;;6195326;28;20038;-78
2021/03/01 05:06:24;;;;;;;25.60;9.02;;;10.30;56.10;;;;;;6182811;28;20403;-78
2021/03/01 05:09:25;;;;;;;17.20;8.13;;;10.30;56.20;;;;;;6181148;28;20046;-78
2021/03/01 05:12:28;;;;;;;18.60;8.77;;;10.30;56.20;;;;;;6182388;28;20053;-78
2021/03/01 05:15:29;;;;;;;24.55;8.50;;;10.30;56.20;;;;;;6198659;28;20050;-78
2021/03/01 05:18:30;;;;;;;19.10;7.82;;;10.30;56.20;;;;;;6166382;28;20042;-78
2021/03/01 05:21:31;;;;;;;23.35;9.52;;;10.30;56.20;;;;;;6181005;28;20344;-79
2021/03/01 05:24:32;;;;;;;20.50;8.98;;;10.30;56.20;;;;;;6182239;28;20105;-79
2021/03/01 05:27:36;;;;;;;24.75;9.88;;;10.40;56.20;;;;;;6184709;28;20172;-76
2021/03/01 05:30:37;;;;;;;19.35;8.27;;;10.40;56.20;;;;;;6167158;28;20035;-78
2021/03/01 05:33:38;;;;;;;20.48;9.20;;;10.40;56.10;;;;;;6199929;28;20030;-79
2021/03/01 05:36:39;;;;;;;18.23;9.18;;;10.40;56.20;;;;;;6183190;28;20379;-79
2021/03/01 05:39:40;;;;;;;18.55;8.02;;;10.40;56.10;;;;;;6164827;28;20615;-80
2021/03/01 05:42:42;;;;;;;20.10;9.15;;;10.40;56.10;;;;;;6200345;28;20044;-79
2021/03/01 05:45:44;;;;;;;19.48;9.48;;;10.40;56.10;;;;;;6202898;28;20052;-77
2021/03/01 05:48:47;;;;;;;15.40;7.93;;;10.40;56.10;;;;;;6192797;28;20048;-77
2021/03/01 05:51:50;;;;;;;23.70;8.68;;;10.30;56.20;;;;;;6189641;28;20042;-77
2021/03/01 05:54:52;;;;;;;17.50;7.75;;;10.20;56.30;;;;;;6184678;28;20050;-78
2021/03/01 05:57:55;;;;;;;21.52;8.77;;;10.20;56.40;;;;;;6187863;28;20037;-77
2021/03/01 06:01:03;;;;;;;13.85;6.80;;;10.20;56.60;;;;;;6184989;28;20363;-78
2021/03/01 06:04:06;;;;;;;26.48;7.90;;;10.10;56.70;;;;;;6197163;28;20475;-78
2021/03/01 06:07:07;;;;;;;18.80;7.78;;;10.00;57.00;;;;;;6177591;28;20049;-78
2021/03/01 06:10:09;;;;;;;17.25;8.23;;;9.90;57.00;;;;;;6179051;28;20027;-78
2021/03/01 06:13:10;;;;;;;19.77;7.53;;;9.80;57.40;;;;;;6201240;28;20031;-78
2021/03/01 06:16:12;;;;;;;17.73;7.82;;;9.80;57.50;;;;;;6184339;28;20034;-78
2021/03/01 06:19:13;;;;;;;17.30;7.82;;;9.80;57.60;;;;;;6182167;28;20561;-79
2021/03/01 06:22:15;;;;;;;15.38;7.57;;;9.80;57.70;;;;;;6173820;28;20154;-79
2021/03/01 06:25:17;;;;;;;17.23;8.18;;;9.80;57.70;;;;;;6170673;28;20034;-79
2021/03/01 06:28:27;;;;;;;20.98;7.85;;;9.80;57.80;;;;;;6195388;28;20348;-79
2021/03/01 06:31:47;;;;;;;23.98;8.65;;;9.70;57.80;;;;;;6179504;28;20046;-78
2021/03/01 06:34:48;;;;;;;17.80;8.20;;;9.70;57.90;;;;;;6172318;28;20050;-77
2021/03/01 06:38:12;;;;;;;15.40;7.63;;;9.80;57.90;;;;;;6205487;28;20034;-77
2021/03/01 06:41:15;;;;;;;21.00;7.80;;;9.70;57.90;;;;;;6185844;28;20054;-77
2021/03/01 06:44:16;;;;;;;17.60;8.13;;;9.70;57.90;;;;;;6196089;28;20052;-78
2021/03/01 06:47:17;;;;;;;16.33;7.82;;;9.80;57.90;;;;;;6208792;28;20039;-78
2021/03/01 06:50:32;;;;;;;19.08;7.90;;;9.70;57.90;;;;;;6155961;28;20153;-78
2021/03/01 06:53:33;;;;;;;19.30;8.85;;;9.70;57.90;;;;;;6168534;28;20038;-78
2021/03/01 06:56:39;;;;;;;22.15;8.18;;;9.70;57.90;;;;;;6180911;28;20064;-78
2021/03/01 06:59:40;;;;;;;22.83;8.32;;;9.80;57.80;;;;;;6154191;28;20039;-78
2021/03/01 07:02:41;;;;;;;20.08;7.38;;;9.90;57.70;;;;;;6183908;28;20363;-77
2021/03/01 07:05:55;;;;;;;24.48;8.45;;;9.90;57.50;;;;;;6170554;28;20046;-77
2021/03/01 07:08:56;;;;;;;20.55;8.80;;;10.00;57.40;;;;;;6150973;28;20038;-75
2021/03/01 07:11:57;;;;;;;18.80;8.13;;;10.00;57.30;;;;;;6178499;28;20069;-75
2021/03/01 07:14:59;;;;;;;26.73;8.43;;;10.10;57.10;;;;;;6179459;28;20117;-78
2021/03/01 07:18:01;;;;;;;18.30;8.85;;;10.20;57.10;;;;;;6144685;28;20102;-78
2021/03/01 07:21:02;;;;;;;21.20;8.85;;;10.20;57.10;;;;;;6171329;28;20038;-77
2021/03/01 07:24:05;;;;;;;21.88;8.90;;;10.30;56.90;;;;;;6170381;28;20046;-76
2021/03/01 07:27:06;;;;;;;22.98;9.80;;;10.30;56.80;;;;;;6179681;28;20031;-77
2021/03/01 07:30:12;;;;;;;23.00;9.65;;;10.30;56.90;;;;;;6178688;28;20030;-76
2021/03/01 07:33:14;;;;;;;20.45;9.30;;;10.30;56.90;;;;;;6178452;28;20085;-77
2021/03/01 07:36:16;;;;;;;17.13;8.50;;;10.30;56.90;;;;;;6206465;28;20058;-77
2021/03/01 07:39:17;;;;;;;20.15;7.95;;;10.30;56.80;;;;;;6171759;28;20039;-76
2021/03/01 07:42:19;;;;;;;29.90;10.68;;;10.30;56.60;;;;;;6136535;28;20456;-76
2021/03/01 07:45:20;;;;;;;24.63;9.90;;;10.30;56.60;;;;;;6120353;28;20023;-76
2021/03/01 07:48:21;;;;;;;30.30;10.27;;;10.20;56.70;;;;;;6135874;28;20039;-76
2021/03/01 07:51:40;;;;;;;30.70;11.95;;;10.20;56.80;;;;;;6120106;28;20527;-76
2021/03/01 07:54:51;;;;;;;;;;;10.20;56.90;;;;;;6123599;28;20050;-76
2021/03/01 07:58:01;;;;;;;21.95;9.25;;;10.30;57.00;;;;;;6151110;28;19946;-76
2021/03/01 08:01:14;;;;;;;25.15;10.25;;;10.40;56.80;;;;;;6134677;28;20062;-77
2021/03/01 08:04:33;;;;;;;26.65;10.18;;;10.40;56.70;;;;;;6151351;28;20036;-76
2021/03/01 08:07:44;;;;;;;33.45;11.02;;;10.50;56.40;;;;;;6135956;28;20121;-77
2021/03/01 08:10:45;;;;;;;34.47;11.30;;;10.50;56.20;;;;;;6133810;29;20102;-76
2021/03/01 08:13:46;;;;;;;20.63;10.70;;;10.60;56.00;;;;;;6150775;29;20035;-78
2021/03/01 08:16:47;;;;;;;26.80;11.23;;;10.70;55.90;;;;;;6134139;29;20039;-75
2021/03/01 08:19:48;;;;;;;27.80;11.45;;;10.80;55.70;;;;;;6117726;29;20412;-76
2021/03/01 08:23:07;;;;;;;26.13;10.27;;;10.80;55.50;;;;;;6150279;29;20035;-76
2021/03/01 08:26:08;;;;;;;28.20;12.02;;;10.90;55.30;;;;;;6134470;29;20035;-76
2021/03/01 08:29:16;;;;;;;25.13;10.60;;;11.10;55.20;;;;;;6133891;29;20042;-76
2021/03/01 08:32:17;;;;;;;22.57;10.33;;;11.20;55.10;;;;;;6133458;29;20027;-76
2021/03/01 08:35:23;;;;;;;29.35;9.75;;;11.30;54.90;;;;;;6132650;29;20343;-77
2021/03/01 08:38:45;;;;;;;22.73;9.38;;;11.50;54.80;;;;;;6140316;28;20035;-76
2021/03/01 08:41:46;;;;;;;19.98;9.27;;;11.60;54.50;;;;;;6156197;28;20065;-76
2021/03/01 08:44:52;;;;;;;28.52;9.75;;;11.80;53.90;;;;;;6156254;28;20391;-78
2021/03/01 08:47:58;;;;;;;25.55;10.38;;;11.80;53.60;;;;;;6156613;28;20045;-77
2021/03/01 08:50:59;;;;;;;23.35;9.43;;;11.90;53.50;;;;;;6147456;28;20066;-76
2021/03/01 08:54:00;;;;;;;28.27;9.95;;;12.00;53.30;;;;;;6142529;28;20053;-77
2021/03/01 08:57:06;;;;;;;21.63;9.40;;;12.10;53.10;;;;;;6175432;28;20034;-77
2021/03/01 09:00:09;;;;;;;37.53;10.05;;;12.20;53.00;;;;;;6142623;28;20503;-77
2021/03/01 09:03:10;;;;;;;26.20;10.93;;;12.20;52.60;;;;;;6142037;28;20035;-76
2021/03/01 09:06:17;;;;;;;24.45;10.15;;;12.30;52.40;;;;;;6173955;28;20035;-77
2021/03/01 09:09:19;;;;;;;30.15;10.80;;;12.40;52.50;;;;;;6157305;28;20101;-78
2021/03/01 09:12:23;;;;;;;26.73;10.45;;;12.50;52.50;;;;;;6140835;28;20146;-78
2021/03/01 09:15:23;;;;;;;32.10;10.30;;;12.70;52.20;;;;;;6151089;28;20114;-77
2021/03/01 09:18:28;;;;;;;36.78;11.30;;;12.60;51.60;;;;;;6158991;28;20085;-77
2021/03/01 09:21:29;;;;;;;23.90;11.10;;;12.80;51.60;;;;;;6158814;28;20035;-77
2021/03/01 09:24:30;;;;;;;22.77;10.23;;;12.90;51.60;;;;;;6159079;28;20038;-78
2021/03/01 09:27:33;;;;;;;28.25;11.50;;;13.00;51.40;;;;;;6158237;28;20070;-77
2021/03/01 09:30:35;;;;;;;27.02;11.52;;;13.10;51.20;;;;;;6143436;28;20078;-77
2021/03/01 09:33:38;;;;;;;20.13;9.43;;;13.20;51.00;;;;;;6148431;28;20039;-77
2021/03/01 09:36:43;;;;;;;22.75;11.10;;;13.30;50.90;;;;;;6141274;28;20078;-77
2021/03/01 09:39:45;;;;;;;27.05;12.20;;;13.40;50.60;;;;;;6151103;28;20114;-77
2021/03/01 09:43:04;;;;;;;20.48;9.73;;;13.50;50.40;;;;;;6149380;28;20355;-77
2021/03/01 09:46:09;;;;;;;23.77;9.63;;;13.60;50.10;;;;;;6153246;28;20042;-76
2021/03/01 09:49:15;;;;;;;22.75;10.23;;;13.70;49.80;;;;;;6155363;28;20050;-75
2021/03/01 09:52:22;;;;;;;30.67;11.38;;;13.70;49.60;;;;;;6184684;28;20092;-76
2021/03/01 09:55:32;;;;;;;29.55;12.63;;;13.70;49.90;;;;;;6171265;28;20042;-76
2021/03/01 09:58:41;;;;;;;35.00;13.38;;;13.80;49.30;;;;;;6152456;28;20092;-77
2021/03/01 10:01:42;;;;;;;27.77;12.32;;;13.80;49.30;;;;;;6152391;28;20042;-77
2021/03/01 10:04:44;;;;;;;27.02;10.52;;;13.80;49.20;;;;;;6181603;28;20336;-78
2021/03/01 10:07:57;;;;;;;29.15;12.20;;;13.90;49.20;;;;;;6163141;28;20069;-76
2021/03/01 10:10:58;;;;;;;30.98;13.18;;;14.00;49.10;;;;;;6158258;28;20101;-76
2021/03/01 10:14:07;;;;;;;42.13;12.82;;;14.10;48.80;;;;;;6164590;28;20047;-76
2021/03/01 10:17:23;;;;;;;;;;;14.20;48.80;;;;;;6149351;28;20048;-76
2021/03/01 10:20:24;;;;;;;46.28;15.80;;;14.30;48.20;;;;;;6176874;28;19918;-76
2021/03/01 10:23:39;;;;;;;59.20;22.52;;;14.50;48.10;;;;;;6166026;28;20085;-76
2021/03/01 10:26:55;;;;;;;34.58;12.88;;;14.50;48.10;;;;;;6159316;28;20035;-76
2021/03/01 10:29:56;;;;;;;33.38;12.90;;;14.60;48.10;;;;;;6179606;28;20137;-77
2021/03/01 10:33:08;;;;;;;27.67;10.82;;;14.70;47.90;;;;;;6177868;28;20062;-75
2021/03/01 10:36:10;;;;;;;30.58;13.05;;;14.80;47.90;;;;;;6151889;28;20114;-77
2021/03/01 10:39:22;;;;;;;28.42;13.13;;;15.00;47.60;;;;;;6197756;28;20041;-77
2021/03/01 10:42:26;;;;;;;49.13;20.08;;;15.20;47.30;;;;;;6210133;28;20050;-78
2021/03/01 10:45:39;;;;;;;30.20;11.48;;;15.50;46.80;;;;;;6209117;28;20042;-76
2021/03/01 10:48:45;;;;;;;35.80;14.00;;;15.70;46.00;;;;;;6197195;28;20049;-76
2021/03/01 10:51:48;;;;;;;27.77;12.55;;;15.80;45.40;;;;;;6177452;28;20126;-77
2021/03/01 10:54:57;;;;;;;27.58;11.38;;;15.90;45.00;;;;;;6171447;28;20033;-77
2021/03/01 10:57:58;;;;;;;25.60;13.52;;;16.10;45.30;;;;;;6185475;28;20038;-77
2021/03/01 11:01:00;;;;;;;33.03;14.38;;;16.20;45.50;;;;;;6177691;28;20042;-78
2021/03/01 11:04:08;;;;;;;45.70;16.48;;;16.60;44.80;;;;;;6146975;28;20444;-77
2021/03/01 11:07:12;;;;;;;42.75;18.45;;;16.90;43.90;;;;;;6166502;28;20132;-77
2021/03/01 11:10:13;;;;;;;32.95;11.82;;;17.00;43.20;;;;;;6219996;28;20367;-77
2021/03/01 11:13:14;;;;;;;30.73;10.82;;;17.10;42.70;;;;;;6204052;28;20045;-76
2021/03/01 11:16:21;;;;;;;27.42;11.20;;;17.20;42.70;;;;;;6203788;28;20061;-77
2021/03/01 11:19:30;;;;;;;28.77;12.48;;;17.40;42.30;;;;;;6188080;28;20030;-77
2021/03/01 11:22:39;;;;;;;47.80;21.40;;;17.60;42.00;;;;;;6174265;28;20379;-79
2021/03/01 11:25:39;;;;;;;29.20;12.98;;;17.80;41.40;;;;;;6220932;28;20026;-77
2021/03/01 11:28:42;;;;;;;28.30;11.88;;;18.10;41.00;;;;;;6205035;28;20521;-78
2021/03/01 11:31:42;;;;;;;26.55;11.65;;;18.30;40.60;;;;;;6205072;28;20041;-77
2021/03/01 11:34:43;;;;;;;36.40;11.80;;;18.70;40.50;;;;;;6205664;28;20049;-76
2021/03/01 11:37:45;;;;;;;47.30;17.15;;;19.10;39.90;;;;;;6205112;28;20105;-77
2021/03/01 11:40:46;;;;;;;22.58;11.07;;;19.50;39.30;;;;;;6222478;28;20037;-77
2021/03/01 11:43:50;;;;;;;25.10;10.95;;;19.90;38.50;;;;;;6204834;28;20088;-77
2021/03/01 11:46:50;;;;;;;23.75;10.63;;;20.20;38.00;;;;;;6222610;28;20041;-77
2021/03/01 11:49:51;;;;;;;20.38;9.88;;;20.70;37.50;;;;;;6182005;28;20101;-76
2021/03/01 11:52:52;;;;;;;23.45;11.45;;;21.20;36.70;;;;;;6180385;28;20471;-77
2021/03/01 11:55:53;;;;;;;22.75;10.07;;;21.70;35.40;;;;;;6197609;28;20053;-77
2021/03/01 11:58:54;;;;;;;28.98;12.50;;;22.10;34.50;;;;;;6197760;28;20467;-78
2021/03/01 12:01:55;;;;;;;26.85;10.63;;;22.50;33.50;;;;;;6180306;28;20042;-78
2021/03/01 12:04:56;;;;;;;22.80;9.88;;;22.90;32.50;;;;;;6180199;28;20411;-77
2021/03/01 12:07:57;;;;;;;26.25;12.48;;;23.50;31.80;;;;;;6199586;28;20058;-77
2021/03/01 12:10:58;;;;;;;19.98;10.20;;;24.00;30.90;;;;;;6180636;28;20038;-77
2021/03/01 12:14:00;;;;;;;29.55;11.20;;;24.30;30.00;;;;;;6189722;28;20034;-77
2021/03/01 12:17:01;;;;;;;19.20;10.25;;;24.70;29.30;;;;;;6200151;28;20050;-77
2021/03/01 12:20:04;;;;;;;30.90;10.27;;;24.90;29.30;;;;;;6167668;28;20484;-77
2021/03/01 12:23:06;;;;;;;19.00;10.55;;;25.30;28.80;;;;;;6193737;28;20043;-77
2021/03/01 12:26:07;;;;;;;22.25;9.40;;;25.60;28.40;;;;;;6185649;28;20235;-77
2021/03/01 12:29:08;;;;;;;20.73;10.25;;;25.90;28.00;;;;;;6221905;28;20050;-77
2021/03/01 12:32:09;;;;;;;17.10;9.25;;;26.30;27.70;;;;;;6192462;28;20034;-77
2021/03/01 12:35:11;;;;;;;19.27;9.50;;;26.50;27.40;;;;;;6189236;28;20042;-77
2021/03/01 12:38:12;;;;;;;24.05;9.18;;;26.90;27.00;;;;;;6192021;28;20113;-77
2021/03/01 12:41:14;;;;;;;21.77;8.68;;;27.20;26.40;;;;;;6209695;28;20104;-77
2021/03/01 12:44:15;;;;;;;24.27;10.25;;;27.20;26.00;;;;;;6193600;28;20049;-77
2021/03/01 12:47:16;;;;;;;24.00;8.85;;;27.10;26.00;;;;;;6199089;28;20030;-78
2021/03/01 12:50:18;;;;;;;22.38;9.10;;;27.00;26.20;;;;;;6179909;28;20084;-78
2021/03/01 12:53:18;;;;;;;23.02;8.45;;;27.10;26.30;;;;;;6209869;28;20117;-77
2021/03/01 12:56:19;;;;;;;20.85;10.15;;;27.50;26.00;;;;;;6219913;28;20186;-79
2021/03/01 12:59:20;;;;;;;23.75;10.90;;;27.40;25.70;;;;;;6199083;28;20042;-76
2021/03/01 13:02:21;;;;;;;21.30;10.55;;;26.70;26.20;;;;;;6195029;28;20096;-76
2021/03/01 13:05:22;;;;;;;25.23;10.40;;;25.90;26.70;;;;;;6209947;28;20064;-76
2021/03/01 13:08:24;;;;;;;17.65;9.70;;;25.10;27.50;;;;;;6183336;28;20417;-76
2021/03/01 13:11:25;;;;;;;29.90;10.50;;;24.50;28.10;;;;;;6182399;28;20038;-76
2021/03/01 13:14:27;;;;;;;29.60;9.25;;;24.00;28.60;;;;;;6182959;28;20038;-75
2021/03/01 13:17:28;;;;;;;23.17;9.90;;;23.40;29.00;;;;;;6182433;28;20328;-77
2021/03/01 13:20:29;;;;;;;20.05;9.77;;;22.90;29.60;;;;;;6172465;28;20034;-76
2021/03/01 13:23:31;;;;;;;21.67;9.95;;;22.50;30.10;;;;;;6182756;28;20045;-79
2021/03/01 13:26:32;;;;;;;24.08;9.38;;;22.20;30.50;;;;;;6182996;28;20030;-76
2021/03/01 13:29:33;;;;;;;28.92;10.20;;;21.90;31.00;;;;;;6165996;28;20050;-76
2021/03/01 13:32:34;;;;;;;19.77;9.15;;;21.60;31.50;;;;;;6166328;28;20100;-77
2021/03/01 13:35:35;;;;;;;20.73;9.35;;;21.40;31.90;;;;;;6157356;28;20030;-78
2021/03/01 13:38:36;;;;;;;19.65;9.88;;;21.20;32.30;;;;;;6183766;28;20054;-78
2021/03/01 13:41:37;;;;;;;23.75;9.57;;;21.10;32.60;;;;;;6143093;28;20379;-78
2021/03/01 13:44:38;;;;;;;23.23;9.68;;;20.90;32.90;;;;;;6143022;28;20035;-76
2021/03/01 13:47:41;;;;;;;26.98;9.77;;;20.80;33.20;;;;;;6164154;28;20143;-76
2021/03/01 13:50:42;;;;;;;35.78;10.00;;;20.70;33.40;;;;;;6152747;28;20030;-76
2021/03/01 13:53:43;;;;;;;21.10;10.52;;;20.60;33.70;;;;;;6159259;28;20113;-77
2021/03/01 13:56:44;;;;;;;30.95;10.70;;;20.40;33.90;;;;;;6141999;28;20125;-76
2021/03/01 13:59:45;;;;;;;22.30;10.25;;;20.40;34.20;;;;;;6156750;28;20467;-76
2021/03/01 14:02:46;;;;;;;17.60;8.93;;;20.30;34.40;;;;;;6141634;28;23067;-76
2021/03/01 14:05:47;;;;;;;28.30;10.45;;;20.20;34.60;;;;;;6148488;28;20071;-77
2021/03/01 14:08:48;;;;;;;23.83;9.50;;;20.20;34.90;;;;;;6167077;28;20034;-76
2021/03/01 14:11:49;;;;;;;25.75;9.40;;;20.10;34.90;;;;;;6182183;28;20034;-77
2021/03/01 14:14:50;;;;;;;23.40;9.55;;;20.10;34.90;;;;;;6181741;28;20042;-77
2021/03/01 14:17:51;;;;;;;26.60;8.50;;;20.10;35.00;;;;;;6164390;28;20375;-77
2021/03/01 14:20:52;;;;;;;25.35;8.90;;;20.10;35.10;;;;;;6163762;28;20046;-77
2021/03/01 14:23:53;;;;;;;21.20;9.05;;;20.00;35.20;;;;;;6172142;28;20345;-77
2021/03/01 14:26:54;;;;;;;23.83;9.27;;;20.00;35.30;;;;;;6165080;28;22111;-76
2021/03/01 14:29:55;;;;;;;19.48;8.35;;;20.00;35.50;;;;;;6176979;28;20511;-78
2021/03/01 14:32:56;;;;;;;17.27;7.82;;;20.00;35.50;;;;;;6192602;28;20052;-76
2021/03/01 14:35:58;;;;;;;20.17;8.68;;;20.00;35.50;;;;;;6181393;28;21531;-76
2021/03/01 14:38:59;;;;;;;24.20;8.38;;;20.00;35.50;;;;;;6165856;28;20046;-78
2021/03/01 14:42:00;;;;;;;17.70;8.52;;;20.00;35.50;;;;;;6180450;28;20053;-77
2021/03/01 14:45:01;;;;;;;20.20;8.13;;;20.00;35.50;;;;;;6181137;28;20034;-77
2021/03/01 14:48:03;;;;;;;20.90;8.43;;;20.00;35.50;;;;;;6180864;28;20042;-78
2021/03/01 14:51:04;;;;;;;19.25;7.95;;;20.00;35.50;;;;;;6141854;28;20113;-77
2021/03/01 14:54:05;;;;;;;29.92;7.43;;;20.00;35.50;;;;;;6181497;28;20042;-76
2021/03/01 14:57:06;;;;;;;19.15;7.78;;;20.00;35.60;;;;;;6163635;28;20075;-76
2021/03/01 15:00:09;;;;;;;15.93;7.32;;;20.00;35.50;;;;;;6196449;28;20062;-76
2021/03/01 15:03:10;;;;;;;16.90;7.55;;;19.90;35.50;;;;;;6180692;28;20069;-77
2021/03/01 15:06:11;;;;;;;19.25;7.60;;;20.00;35.60;;;;;;6180735;28;20464;-78
2021/03/01 15:09:12;;;;;;;35.95;12.63;;;20.00;35.60;;;;;;6151792;28;20054;-77
2021/03/01 15:12:13;;;;;;;26.50;10.63;;;20.00;35.50;;;;;;6156793;28;20038;-77
2021/03/01 15:15:14;;;;;;;17.00;7.63;;;20.00;35.50;;;;;;6156448;28;20085;-78
2021/03/01 15:18:15;;;;;;;20.38;7.65;;;20.00;35.50;;;;;;6156428;28;20367;-78
2021/03/01 15:21:16;;;;;;;19.60;7.57;;;20.00;35.60;;;;;;6138822;28;20039;-77
2021/03/01 15:24:17;;;;;;;23.05;7.32;;;20.00;35.50;;;;;;6156164;28;20049;-77
2021/03/01 15:27:18;;;;;;;15.07;7.50;;;20.00;35.50;;;;;;6182224;28;20049;-77
2021/03/01 15:30:20;;;;;;;18.23;8.05;;;19.90;35.40;;;;;;6157122;28;20050;-76
2021/03/01 15:33:21;;;;;;;18.08;8.00;;;19.90;35.40;;;;;;6155991;28;20041;-76
2021/03/01 15:36:22;;;;;;;20.70;8.43;;;19.90;35.50;;;;;;6156418;28;20045;-77
2021/03/01 15:39:23;;;;;;;20.65;7.80;;;19.90;35.50;;;;;;6169527;28;20038;-77
2021/03/01 15:42:25;;;;;;;24.50;8.18;;;19.90;35.50;;;;;;6195014;28;20035;-77
2021/03/01 15:45:26;;;;;;;16.30;6.97;;;19.90;35.50;;;;;;6180727;28;20109;-77
2021/03/01 15:48:27;;;;;;;28.42;9.07;;;19.80;35.50;;;;;;6180427;28;20356;-77
2021/03/01 15:51:28;;;;;;;23.23;8.30;;;19.80;35.60;;;;;;6165944;28;20054;-76
2021/03/01 15:54:29;;;;;;;18.92;7.05;;;19.80;35.60;;;;;;6164903;28;20121;-76
2021/03/01 15:57:30;;;;;;;22.52;7.32;;;19.80;35.60;;;;;;6179603;28;20062;-75
2021/03/01 16:00:31;;;;;;;19.55;7.05;;;19.80;35.60;;;;;;6181186;28;20089;-77
2021/03/01 16:03:34;;;;;;;21.08;6.93;;;19.80;35.70;;;;;;6169663;28;20042;-77
2021/03/01 16:06:35;;;;;;;19.70;7.15;;;19.80;35.70;;;;;;6168934;28;20114;-77
2021/03/01 16:09:36;;;;;;;29.00;7.40;;;19.70;35.60;;;;;;6151042;28;20475;-77
2021/03/01 16:12:37;;;;;;;15.60;6.95;;;19.70;35.70;;;;;;6161048;28;20034;-77
2021/03/01 16:15:38;;;;;;;16.58;6.93;;;19.70;35.80;;;;;;6160942;28;20038;-77
2021/03/01 16:18:39;;;;;;;25.65;7.18;;;19.70;35.80;;;;;;6160136;28;20057;-77
2021/03/01 16:21:40;;;;;;;22.10;7.20;;;19.70;35.90;;;;;;6144310;28;20097;-77
2021/03/01 16:24:41;;;;;;;18.75;6.20;;;19.60;35.80;;;;;;6160710;28;20493;-77
2021/03/01 16:27:43;;;;;;;18.73;6.75;;;19.60;35.70;;;;;;6177343;28;20042;-77
2021/03/01 16:30:45;;;;;;;18.42;6.90;;;19.50;35.70;;;;;;6160696;28;20671;-76
2021/03/01 16:33:46;;;;;;;19.60;6.13;;;19.50;35.70;;;;;;6160071;28;20035;-76
2021/03/01 16:36:47;;;;;;;18.25;6.50;;;19.50;35.80;;;;;;6159127;28;20049;-76
2021/03/01 16:39:48;;;;;;;19.85;6.40;;;19.40;35.70;;;;;;6192311;28;20483;-77
2021/03/01 16:42:51;;;;;;;21.95;6.32;;;19.40;35.60;;;;;;6168142;28;20034;-77
2021/03/01 16:45:52;;;;;;;16.52;5.78;;;19.30;35.60;;;;;;6201581;28;20112;-77
2021/03/01 16:48:55;;;;;;;22.13;6.20;;;19.30;35.60;;;;;;6166407;28;20042;-78
2021/03/01 16:51:57;;;;;;;17.80;6.97;;;19.30;35.60;;;;;;6184111;28;20027;-77
2021/03/01 16:54:59;;;;;;;14.65;6.38;;;19.30;35.70;;;;;;6201164;28;20034;-75
2021/03/01 16:58:01;;;;;;;13.75;5.38;;;19.20;35.70;;;;;;6182704;28;20038;-76
2021/03/01 17:01:03;;;;;;;21.17;5.85;;;19.10;35.60;;;;;;6200887;28;20042;-76
2021/03/01 17:04:07;;;;;;;23.48;5.47;;;19.10;35.80;;;;;;6183796;28;20383;-75
2021/03/01 17:07:08;;;;;;;18.65;5.50;;;19.00;35.80;;;;;;6183340;28;20077;-77
2021/03/01 17:10:19;;;;;;;21.55;6.57;;;19.00;35.90;;;;;;6181143;28;20374;-76
2021/03/01 17:13:27;;;;;;;18.63;5.63;;;19.00;36.00;;;;;;6166057;28;20046;-76
2021/03/01 17:16:32;;;;;;;21.70;5.78;;;18.90;36.20;;;;;;6183137;28;20386;-76
2021/03/01 17:19:34;;;;;;;20.20;5.53;;;18.80;36.10;;;;;;6183191;28;20439;-76
2021/03/01 17:22:38;;;;;;;19.85;6.18;;;18.80;36.30;;;;;;6183666;28;20112;-77
2021/03/01 17:25:39;;;;;;;19.30;8.60;;;18.70;36.40;;;;;;6183568;28;20057;-77
2021/03/01 17:28:40;;;;;;;16.48;6.30;;;18.70;36.50;;;;;;6183266;28;20073;-76
2021/03/01 17:31:41;;;;;;;21.33;6.60;;;18.60;36.60;;;;;;6199133;28;20097;-76
2021/03/01 17:34:47;;;;;;;27.63;7.22;;;18.50;36.70;;;;;;6167158;28;20054;-76
2021/03/01 17:37:48;;;;;;;21.27;7.28;;;18.50;37.00;;;;;;6180987;28;20071;-77
2021/03/01 17:40:49;;;;;;;17.52;6.10;;;18.30;37.10;;;;;;6214030;28;20050;-76
2021/03/01 17:43:52;;;;;;;26.77;7.30;;;18.30;37.40;;;;;;6231743;28;20041;-76
2021/03/01 17:47:11;;;;;;;25.98;8.75;;;18.30;37.50;;;;;;6248874;28;20033;-77
2021/03/01 17:50:14;;;;;;;18.30;6.22;;;18.10;37.80;;;;;;6227825;28;20033;-76
2021/03/01 17:53:32;;;;;;;18.20;6.25;;;18.10;38.10;;;;;;6213306;28;20090;-76
2021/03/01 17:56:43;;;;;;;18.00;6.20;;;18.00;38.40;;;;;;6229348;28;20450;-77
2021/03/01 17:59:54;;;;;;;24.80;6.13;;;17.90;38.60;;;;;;6212655;28;20137;-77
2021/03/01 18:03:03;;;;;;;17.42;5.43;;;17.80;38.80;;;;;;6210457;28;20031;-78
2021/03/01 18:06:06;;;;;;;18.40;5.80;;;17.70;39.00;;;;;;6211000;28;20042;-77
2021/03/01 18:09:11;;;;;;;13.93;4.90;;;17.70;39.20;;;;;;6202446;28;20050;-78
2021/03/01 18:12:12;;;;;;;18.67;5.32;;;17.60;39.40;;;;;;6208012;28;20056;-78
2021/03/01 18:15:14;;;;;;;18.40;5.38;;;17.50;39.40;;;;;;6222256;28;20054;-77
2021/03/01 18:18:17;;;;;;;29.95;12.07;;;17.50;39.50;;;;;;6202410;28;20053;-79
2021/03/01 18:21:20;;;;;;;33.70;11.57;;;17.40;39.70;;;;;;6202155;28;20048;-79
2021/03/01 18:24:26;;;;;;;22.13;7.97;;;17.40;40.10;;;;;;6197859;28;20042;-83
2021/03/01 18:27:30;;;;;;;17.58;6.63;;;17.40;40.30;;;;;;6193234;28;20466;-81
2021/03/01 18:30:32;;;;;;;17.83;6.55;;;17.30;40.40;;;;;;6194706;28;20030;-80
2021/03/01 18:33:56;;;;;;;20.75;6.53;;;17.30;40.50;;;;;;6166847;28;20057;-82
2021/03/01 18:37:12;;;;;;;19.92;6.47;;;17.20;40.60;;;;;;6069932;29;20036;-81
2021/03/01 18:40:24;;;;;;;13.65;5.68;;;17.20;40.60;;;;;;6062535;29;20050;-79
2021/03/01 18:43:28;;;;;;;12.95;5.65;;;17.10;40.80;;;;;;6099286;29;20055;-83
2021/03/01 18:46:37;;;;;;;14.90;5.68;;;17.00;41.30;;;;;;6076660;29;20525;-79
2021/03/01 18:49:38;;;;;;;17.42;6.15;;;16.90;41.40;;;;;;6084801;29;20099;-81
2021/03/01 18:52:43;;;;;;;24.42;7.18;;;16.90;41.50;;;;;;6102305;29;20517;-77
2021/03/01 18:55:47;;;;;;;20.20;6.20;;;16.90;41.50;;;;;;6117600;29;20054;-77
2021/03/01 18:58:49;;;;;;;19.60;5.97;;;16.80;41.40;;;;;;6070244;29;20044;-76
2021/03/01 19:01:50;;;;;;;21.45;6.40;;;16.80;41.40;;;;;;6105916;29;20051;-78
2021/03/01 19:04:52;;;;;;;18.40;5.72;;;16.70;41.50;;;;;;6091851;29;20051;-79
2021/03/01 19:07:55;;;;;;;16.55;4.40;;;16.90;41.70;;;;;;6062096;29;20123;-78
2021/03/01 19:11:30;;;;;;;13.85;5.47;;;16.60;41.70;;;;;;6120425;29;20028;-77
2021/03/01 19:14:40;;;;;;;18.52;5.15;;;16.60;41.90;;;;;;6183875;28;20463;-79
2021/03/01 19:17:53;;;;;;;16.13;5.72;;;16.50;41.90;;;;;;6224318;28;20029;-78
2021/03/01 19:20:56;;;;;;;;;;;16.40;42.10;;;;;;6193395;28;20537;-80
2021/03/01 19:24:17;;;;;;;14.60;5.32;;;16.40;42.10;;;;;;6205359;28;19952;-80
2021/03/01 19:27:19;;;;;;;18.98;6.78;;;16.30;42.10;;;;;;6168985;28;20129;-79
2021/03/01 19:30:22;;;;;;;16.17;5.35;;;16.30;42.10;;;;;;6197891;28;20034;-79
2021/03/01 19:33:31;;;;;;;17.38;5.95;;;16.30;42.10;;;;;;6175515;28;20134;-77
2021/03/01 19:36:34;;;;;;;13.23;5.65;;;16.30;42.20;;;;;;6206752;28;20085;-76
2021/03/01 19:39:35;;;;;;;16.25;5.88;;;16.20;42.20;;;;;;6196343;28;20046;-79
2021/03/01 19:42:42;;;;;;;17.67;6.07;;;16.20;42.40;;;;;;6173483;28;20035;-78